Terminal Aerodrome Forecast
Issued by NWS Cleveland, OH

Home | Current Version | Previous Version | Graphics & Text | Print | Product List | Glossary On
Versions: 1 2 3 4 5 6 7 8 9 10 11 12 13 14
661
FTUS41 KCLE 202328
TAFTOL
TAF
KTOL 202328Z 2100/2124 VRB03KT P6SM BKN150
     FM210900 VRB03KT 4SM BR BKN250
     FM211200 23006KT P6SM VCSH BKN100
     FM211700 23008KT P6SM SCT100=

USA.gov is the U.S. government's official web portal to all federal, state and local government web resources and services.